Bremen Airport EDDW

Flugplatz Daten

Name: Bremen Airport

Ident: EDDW

Lat: 53,04750061

Long: 8,786669731

Platzhöhe: 14 ft

IataCode: BRE

City: Bremen

Metar

2021/10/25 23:50
EDDW 252350Z 21007KT 9999 SCT043 11/09 Q1016

Taf

2021/10/25 00:27
TAF EDDW 252300Z 2600/2624 20005KT 9999 BKN020
BECMG 2600/2602 BKN012
BECMG 2602/2604 BKN008 PROB40
TEMPO 2603/2608 BKN004 PROB30
TEMPO 2603/2605 4000 -RA BR
BECMG 2608/2610 23010KT BKN015 PROB30
TEMPO 2610/2613 BKN012
BECMG 2621/2624 BKN010 PROB30
TEMPO 2621/2624 3000 -RADZ BKN008
Gewünschte Webcam nicht vorhanden? Dann fügen Sie eine hinzu. Sie wird dann so schnell wie möglich freigeschaltet
Url: Title: